createdAt,value
2018-06-03T00:00:46.746Z,10.17
2018-06-03T00:03:19.425Z,10.40
2018-06-03T00:05:51.902Z,10.50
2018-06-03T00:08:24.287Z,9.17
2018-06-03T00:10:56.700Z,10.57
2018-06-03T00:13:29.382Z,10.23
2018-06-03T00:16:01.780Z,10.53
2018-06-03T00:18:34.158Z,10.63
2018-06-03T00:21:17.872Z,13.77
2018-06-03T00:23:50.406Z,12.83
2018-06-03T00:26:23.044Z,12.73
2018-06-03T00:28:55.686Z,12.87
2018-06-03T00:31:28.107Z,13.30
2018-06-03T00:34:00.698Z,12.80
2018-06-03T00:36:43.281Z,13.87
2018-06-03T00:39:15.664Z,13.77
2018-06-03T00:41:48.061Z,13.67
2018-06-03T00:44:20.442Z,13.83
2018-06-03T00:46:52.841Z,13.70
2018-06-03T00:49:25.230Z,14.43
2018-06-03T00:51:57.950Z,15.23
2018-06-03T00:54:30.337Z,15.77
2018-06-03T00:57:09.821Z,14.70
2018-06-03T00:59:42.474Z,16.53
2018-06-03T01:02:15.182Z,16.77
2018-06-03T01:04:47.567Z,17.63
2018-06-03T01:07:19.970Z,15.97
2018-06-03T01:09:52.360Z,17.10
2018-06-03T01:12:24.762Z,16.00
2018-06-03T01:14:57.204Z,17.43
2018-06-03T01:17:29.606Z,18.57
2018-06-03T01:20:02.213Z,19.10
2018-06-03T01:22:34.638Z,19.40
2018-06-03T01:25:07.033Z,20.20
2018-06-03T01:27:39.426Z,20.80
2018-06-03T01:30:12.110Z,20.10
2018-06-03T01:32:44.768Z,20.77
2018-06-03T01:35:17.153Z,21.17
2018-06-03T01:37:49.557Z,21.83
2018-06-03T01:40:21.969Z,20.47
2018-06-03T01:42:54.378Z,21.63
2018-06-03T01:45:26.782Z,20.77
2018-06-03T01:47:59.191Z,21.43
2018-06-03T01:50:31.579Z,25.13
2018-06-03T01:53:04.341Z,25.37
2018-06-03T01:55:36.733Z,25.37
2018-06-03T01:58:09.390Z,26.60
2018-06-03T02:00:42.070Z,25.43
2018-06-03T02:03:14.774Z,28.43
2018-06-03T02:05:47.162Z,27.43
2018-06-03T02:08:19.570Z,26.37
2018-06-03T02:10:51.958Z,27.47
2018-06-03T02:13:24.381Z,27.47
2018-06-03T02:15:56.766Z,26.63
2018-06-03T02:18:29.410Z,28.90
2018-06-03T02:21:01.799Z,28.47
2018-06-03T02:23:34.230Z,26.00
2018-06-03T02:26:06.627Z,28.33
2018-06-03T02:28:39.126Z,30.13
2018-06-03T02:31:11.504Z,28.83
2018-06-03T02:33:43.914Z,28.70
2018-06-03T02:36:16.629Z,28.70
2018-06-03T02:38:49.042Z,30.50
2018-06-03T02:41:21.461Z,29.13
2018-06-03T02:43:54.146Z,28.63
2018-06-03T02:46:26.526Z,28.60
2018-06-03T02:48:58.922Z,30.90
2018-06-03T02:51:31.466Z,28.63
2018-06-03T02:54:03.998Z,29.43
2018-06-03T02:56:36.384Z,31.20
2018-06-03T02:59:08.781Z,30.87
2018-06-03T03:01:41.445Z,30.67
2018-06-03T03:04:13.861Z,32.10
2018-06-03T03:06:46.255Z,30.50
2018-06-03T03:09:18.682Z,32.43
2018-06-03T03:11:51.082Z,29.97
2018-06-03T03:14:23.494Z,31.53
2018-06-03T03:16:55.894Z,27.83
2018-06-03T03:19:28.598Z,27.17
2018-06-03T03:22:00.990Z,25.50
2018-06-03T03:24:33.389Z,28.73
2018-06-03T03:27:06.074Z,29.20
2018-06-03T03:29:38.474Z,29.73
2018-06-03T03:32:10.862Z,29.23
2018-06-03T03:34:43.508Z,30.77
2018-06-03T03:37:16.177Z,31.67
2018-06-03T03:39:48.578Z,29.83
2018-06-03T03:42:20.814Z,30.07
2018-06-03T03:44:53.527Z,30.43
2018-06-03T03:47:25.918Z,29.37
2018-06-03T03:49:58.325Z,28.97
2018-06-03T03:52:30.722Z,29.40
2018-06-03T03:55:03.431Z,29.40
2018-06-03T03:57:36.062Z,29.33
2018-06-03T04:00:08.494Z,29.97
2018-06-03T04:02:40.875Z,28.20
2018-06-03T04:05:13.941Z,26.77
2018-06-03T04:07:46.335Z,28.97
2018-06-03T04:10:18.768Z,28.83
2018-06-03T04:12:51.151Z,27.73
2018-06-03T04:15:23.841Z,27.97
2018-06-03T04:17:56.483Z,26.73
2018-06-03T04:20:29.198Z,25.47
2018-06-03T04:23:01.597Z,25.53
2018-06-03T04:25:34.005Z,26.40
2018-06-03T04:28:06.390Z,25.97
2018-06-03T04:30:38.803Z,28.27
2018-06-03T04:33:11.181Z,28.47
2018-06-03T04:35:43.897Z,26.27
2018-06-03T04:38:16.289Z,24.27
2018-06-03T04:40:48.727Z,26.27
2018-06-03T04:43:21.141Z,27.33
2018-06-03T04:45:53.552Z,25.00
2018-06-03T04:48:25.941Z,26.37
2018-06-03T04:50:58.357Z,26.90
2018-06-03T04:53:30.601Z,26.03
2018-06-03T04:56:03.321Z,23.17
2018-06-03T04:58:35.701Z,23.30
2018-06-03T05:01:08.097Z,21.73
2018-06-03T05:03:41.052Z,25.07
2018-06-03T05:06:13.726Z,25.03
2018-06-03T05:08:46.372Z,27.40
2018-06-03T05:11:18.770Z,26.13
2018-06-03T05:13:51.169Z,22.10
2018-06-03T05:16:23.660Z,24.80
2018-06-03T05:18:56.038Z,23.50
2018-06-03T05:21:28.448Z,23.50
2018-06-03T05:24:01.119Z,22.40
2018-06-03T05:26:34.293Z,21.37
2018-06-03T05:29:06.981Z,21.80
2018-06-03T05:31:39.386Z,22.47
2018-06-03T05:34:11.777Z,23.73
2018-06-03T05:36:44.425Z,21.37
2018-06-03T05:39:17.061Z,22.93
2018-06-03T05:41:49.769Z,21.53
2018-06-03T05:44:22.171Z,21.07
2018-06-03T05:46:54.930Z,21.23
2018-06-03T05:49:27.590Z,22.53
2018-06-03T05:52:00.044Z,23.00
2018-06-03T05:54:32.437Z,18.50
2018-06-03T05:57:04.885Z,22.90
2018-06-03T05:59:37.310Z,23.43
2018-06-03T06:02:09.758Z,22.63
2018-06-03T06:04:42.175Z,17.73
2018-06-03T06:07:15.257Z,20.87
2018-06-03T06:09:48.007Z,19.27
2018-06-03T06:12:20.434Z,21.60
2018-06-03T06:14:52.851Z,18.07
2018-06-03T06:17:25.294Z,19.03
2018-06-03T06:19:57.697Z,17.17
2018-06-03T06:22:30.134Z,16.90
2018-06-03T06:25:02.545Z,17.98
2018-06-03T06:27:35.252Z,17.85
2018-06-03T06:30:07.668Z,17.10
2018-06-03T06:32:40.122Z,18.97
2018-06-03T06:35:12.578Z,19.37
2018-06-03T06:37:45.019Z,20.50
2018-06-03T06:40:17.443Z,16.93
2018-06-03T06:42:49.858Z,19.50
2018-06-03T06:45:22.259Z,16.60
2018-06-03T06:47:54.914Z,17.48
2018-06-03T06:50:27.885Z,17.10
2018-06-03T06:53:00.326Z,19.17
2018-06-03T06:55:32.702Z,16.60
2018-06-03T06:58:05.445Z,16.55
2018-06-03T07:00:37.835Z,16.17
2018-06-03T07:03:10.352Z,13.25
2018-06-03T07:05:42.778Z,15.08
2018-06-03T07:08:15.202Z,14.53
2018-06-03T07:10:48.006Z,19.57
2018-06-03T07:13:20.713Z,17.65
2018-06-03T07:15:53.437Z,16.45
2018-06-03T07:18:25.836Z,15.43
2018-06-03T07:20:58.519Z,16.65
2018-06-03T07:23:30.945Z,16.07
2018-06-03T07:26:03.333Z,19.60
2018-06-03T07:28:35.751Z,21.50
2018-06-03T07:31:08.137Z,18.02
2018-06-03T07:33:40.559Z,18.92
2018-06-03T07:36:12.961Z,16.20
2018-06-03T07:38:45.382Z,21.40
2018-06-03T07:41:17.788Z,20.92
2018-06-03T07:43:50.201Z,20.97
2018-06-03T07:46:22.589Z,18.62
2018-06-03T07:48:55.245Z,23.07
2018-06-03T07:51:27.642Z,23.18
2018-06-03T07:54:00.055Z,24.40
2018-06-03T07:56:32.494Z,20.60
2018-06-03T07:59:04.917Z,21.17
2018-06-03T08:01:37.924Z,21.10
2018-06-03T08:04:10.611Z,21.20
2018-06-03T08:06:43.014Z,21.00
2018-06-03T08:09:15.750Z,18.23
2018-06-03T08:11:48.043Z,19.80
2018-06-03T08:14:20.442Z,20.82
2018-06-03T08:16:54.209Z,18.75
2018-06-03T08:19:26.614Z,15.45
2018-06-03T08:21:59.017Z,15.63
2018-06-03T08:24:31.681Z,16.17
2018-06-03T08:27:04.354Z,17.23
2018-06-03T08:29:36.790Z,17.23
2018-06-03T08:32:09.178Z,13.70
2018-06-03T08:34:41.569Z,15.55
2018-06-03T08:37:13.958Z,12.98
2018-06-03T08:39:46.378Z,16.77
2018-06-03T08:42:18.832Z,16.90
2018-06-03T08:44:51.279Z,18.65
2018-06-03T08:47:23.671Z,14.83
2018-06-03T08:49:56.078Z,14.85
2018-06-03T08:52:28.470Z,15.25
2018-06-03T08:55:00.902Z,15.60
2018-06-03T08:57:33.303Z,13.25
2018-06-03T09:00:05.708Z,16.95
2018-06-03T09:02:38.099Z,16.12
2018-06-03T09:05:10.502Z,17.12
2018-06-03T09:07:43.160Z,15.38
2018-06-03T09:10:15.570Z,15.20
2018-06-03T09:12:47.961Z,12.82
2018-06-03T09:15:20.397Z,12.30
2018-06-03T09:17:52.803Z,12.13
2018-06-03T09:20:25.218Z,12.93
2018-06-03T09:22:57.614Z,14.98
2018-06-03T09:25:30.033Z,12.25
2018-06-03T09:28:02.710Z,13.10
2018-06-03T09:30:35.383Z,12.82
2018-06-03T09:33:08.064Z,13.32
2018-06-03T09:35:41.075Z,14.20
2018-06-03T09:38:13.707Z,14.18
2018-06-03T09:40:46.439Z,13.45
2018-06-03T09:43:19.512Z,15.15
2018-06-03T09:45:51.942Z,12.03
2018-06-03T09:48:24.375Z,15.83
2018-06-03T09:50:57.030Z,17.25
2018-06-03T09:53:29.429Z,14.55
2018-06-03T09:56:02.414Z,17.35
2018-06-03T09:58:35.161Z,15.30
2018-06-03T10:01:08.186Z,15.18
2018-06-03T10:03:40.859Z,18.23
2018-06-03T10:06:13.537Z,16.52
2018-06-03T10:08:46.154Z,13.75
2018-06-03T10:11:18.595Z,16.42
2018-06-03T10:13:50.971Z,17.20
2018-06-03T10:16:23.748Z,15.25
2018-06-03T10:18:56.163Z,16.37
2018-06-03T10:21:28.578Z,16.37
2018-06-03T10:24:00.966Z,14.98
2018-06-03T10:26:33.610Z,15.55
2018-06-03T10:29:05.995Z,14.63
2018-06-03T10:31:38.394Z,13.30
2018-06-03T10:34:10.774Z,14.23
2018-06-03T10:36:43.182Z,10.80
2018-06-03T10:39:15.575Z,12.43
2018-06-03T10:41:47.987Z,11.88
2018-06-03T10:44:20.400Z,12.15
2018-06-03T10:46:52.806Z,9.95
2018-06-03T10:49:25.197Z,11.50
2018-06-03T10:51:58.173Z,13.80
2018-06-03T10:54:30.859Z,12.80
2018-06-03T10:57:03.530Z,13.88
2018-06-03T10:59:35.909Z,13.58
2018-06-03T11:02:08.311Z,12.28
2018-06-03T11:04:40.697Z,12.60
2018-06-03T11:07:13.126Z,12.78
2018-06-03T11:09:45.512Z,12.98
2018-06-03T11:12:18.245Z,12.45
2018-06-03T11:14:50.891Z,13.98
2018-06-03T11:17:23.326Z,14.78
2018-06-03T11:19:55.721Z,14.40
2018-06-03T11:22:28.358Z,14.05
2018-06-03T11:25:00.991Z,14.78
2018-06-03T11:27:33.465Z,15.48
2018-06-03T11:30:05.798Z,16.70
2018-06-03T11:32:38.449Z,17.25
2018-06-03T11:35:10.837Z,16.45
2018-06-03T11:37:43.510Z,19.77
2018-06-03T11:40:15.921Z,18.45
2018-06-03T11:42:48.326Z,14.90
2018-06-03T11:45:21.315Z,16.57
2018-06-03T11:47:53.994Z,18.75
2018-06-03T11:50:26.407Z,16.17
2018-06-03T11:52:58.810Z,15.63
2018-06-03T11:55:31.205Z,20.23
2018-06-03T11:58:41.123Z,20.62
2018-06-03T12:01:13.506Z,18.98
2018-06-03T12:03:45.919Z,17.32
2018-06-03T12:06:18.304Z,19.67
2018-06-03T12:08:50.998Z,20.30
2018-06-03T12:11:23.690Z,19.42
2018-06-03T12:13:56.430Z,20.27
2018-06-03T12:16:28.817Z,19.02
2018-06-03T12:19:01.247Z,21.33
2018-06-03T12:21:33.697Z,19.48
2018-06-03T12:24:06.662Z,19.32
2018-06-03T12:26:39.042Z,18.00
2018-06-03T12:29:11.691Z,18.67
2018-06-03T12:31:44.081Z,21.62
2018-06-03T12:34:16.485Z,18.57
2018-06-03T12:36:48.869Z,20.12
2018-06-03T12:39:21.595Z,20.72
2018-06-03T12:41:54.376Z,17.95
2018-06-03T12:44:27.384Z,17.50
2018-06-03T12:47:01.139Z,16.95
2018-06-03T12:49:33.593Z,20.02
2018-06-03T12:52:06.043Z,16.25
2018-06-03T12:54:38.478Z,18.05
2018-06-03T12:57:10.901Z,17.20
2018-06-03T12:59:43.638Z,17.52
2018-06-03T13:02:16.054Z,16.30
2018-06-03T13:04:48.491Z,17.35
2018-06-03T13:07:20.894Z,17.32
2018-06-03T13:09:53.298Z,17.30
2018-06-03T13:12:25.697Z,16.48
2018-06-03T13:14:58.200Z,15.40
2018-06-03T13:17:30.907Z,16.80
2018-06-03T13:20:03.538Z,17.55
2018-06-03T13:22:36.165Z,15.18
2018-06-03T13:25:08.628Z,16.70
2018-06-03T13:27:41.002Z,14.90
2018-06-03T13:30:13.401Z,14.40
2018-06-03T13:32:45.798Z,15.72
2018-06-03T13:35:18.203Z,16.17
2018-06-03T13:37:50.580Z,17.70
2018-06-03T13:40:22.974Z,16.52
2018-06-03T13:42:55.412Z,19.65
2018-06-03T13:45:27.988Z,19.65
2018-06-03T13:48:00.417Z,20.52
2018-06-03T13:50:33.121Z,19.35
2018-06-03T13:53:05.764Z,20.35
2018-06-03T13:55:38.478Z,18.07
2018-06-03T13:58:11.238Z,21.52
2018-06-03T14:00:43.693Z,21.62
2018-06-03T14:03:16.702Z,22.60
2018-06-03T14:05:49.122Z,21.27
2018-06-03T14:08:21.545Z,22.35
2018-06-03T14:10:54.266Z,21.62
2018-06-03T14:13:26.680Z,19.82
2018-06-03T14:15:59.123Z,21.12
2018-06-03T14:18:31.534Z,20.85
2018-06-03T14:21:04.257Z,20.70
2018-06-03T14:23:36.675Z,21.10
2018-06-03T14:26:09.110Z,20.40
2018-06-03T14:28:41.522Z,21.57
2018-06-03T14:31:13.959Z,20.02
2018-06-03T14:33:46.626Z,20.17
2018-06-03T14:36:19.061Z,19.77
2018-06-03T14:38:51.474Z,19.37
2018-06-03T14:41:23.914Z,18.60
2018-06-03T14:43:56.286Z,19.55
2018-06-03T14:46:28.705Z,19.98
2018-06-03T14:49:01.366Z,19.37
2018-06-03T14:51:33.791Z,19.67
2018-06-03T14:54:06.468Z,20.02
2018-06-03T14:56:38.988Z,21.25
2018-06-03T14:59:11.326Z,22.62
2018-06-03T15:01:44.051Z,21.10
2018-06-03T15:04:16.430Z,21.30
2018-06-03T15:06:48.835Z,22.32
2018-06-03T15:09:21.218Z,21.87
2018-06-03T15:11:53.630Z,23.02
2018-06-03T15:14:26.318Z,24.07
2018-06-03T15:16:58.734Z,22.25
2018-06-03T15:19:31.121Z,21.30
2018-06-03T15:22:03.540Z,20.05
2018-06-03T15:24:36.233Z,21.05
2018-06-03T15:27:08.967Z,19.87
2018-06-03T15:29:41.373Z,21.10
2018-06-03T15:32:13.798Z,20.48
2018-06-03T15:34:46.049Z,20.70
2018-06-03T15:37:18.505Z,20.65
2018-06-03T15:39:50.922Z,21.05
2018-06-03T15:42:23.327Z,20.70
2018-06-03T15:44:55.722Z,22.35
2018-06-03T15:47:28.133Z,20.08
2018-06-03T15:50:00.540Z,20.37
2018-06-03T15:52:32.979Z,20.52
2018-06-03T15:55:05.373Z,20.43
2018-06-03T15:57:37.823Z,21.37
2018-06-03T16:00:10.506Z,20.80
2018-06-03T16:02:42.930Z,20.80
2018-06-03T16:05:15.332Z,19.60
2018-06-03T16:07:48.096Z,20.02
2018-06-03T16:10:20.551Z,19.55
2018-06-03T16:12:52.965Z,18.20
2018-06-03T16:15:25.352Z,19.45
2018-06-03T16:17:58.073Z,18.98
2018-06-03T16:20:30.757Z,19.27
2018-06-03T16:23:03.243Z,18.17
2018-06-03T16:25:35.701Z,17.87
2018-06-03T16:28:08.176Z,18.15
2018-06-03T16:30:40.557Z,18.67
2018-06-03T16:33:13.122Z,18.05
2018-06-03T16:35:45.510Z,18.05
2018-06-03T16:38:17.946Z,17.55
2018-06-03T16:40:50.363Z,18.12
2018-06-03T16:43:22.801Z,17.32
2018-06-03T16:45:55.190Z,19.92
2018-06-03T16:48:27.597Z,17.92
2018-06-03T16:51:00.282Z,20.00
2018-06-03T16:53:32.742Z,21.85
2018-06-03T16:56:05.137Z,19.90
2018-06-03T16:58:37.539Z,20.35
2018-06-03T17:01:10.228Z,19.80
2018-06-03T17:03:42.677Z,21.10
2018-06-03T17:06:15.064Z,19.75
2018-06-03T17:08:47.477Z,21.40
2018-06-03T17:11:19.874Z,18.85
2018-06-03T17:13:52.388Z,19.05
2018-06-03T17:16:24.795Z,19.37
2018-06-03T17:18:57.232Z,17.80
2018-06-03T17:21:29.613Z,20.00
2018-06-03T17:24:02.040Z,20.82
2018-06-03T17:26:34.476Z,21.97
2018-06-03T17:29:07.207Z,21.57
2018-06-03T17:31:39.586Z,20.75
2018-06-03T17:34:12.245Z,22.37
2018-06-03T17:36:44.755Z,22.20
2018-06-03T17:39:17.166Z,22.82
2018-06-03T17:41:49.670Z,23.52
2018-06-03T17:44:22.689Z,24.40
2018-06-03T17:46:55.132Z,23.27
2018-06-03T17:49:27.565Z,22.23
2018-06-03T17:51:59.986Z,20.20
2018-06-03T17:54:32.466Z,20.48
2018-06-03T17:57:04.883Z,19.27
2018-06-03T17:59:37.335Z,19.83
2018-06-03T18:02:10.006Z,20.77
2018-06-03T18:04:42.580Z,19.43
2018-06-03T18:07:15.266Z,18.65
2018-06-03T18:09:47.951Z,19.92
2018-06-03T18:12:20.618Z,19.07
2018-06-03T18:14:53.382Z,19.83
2018-06-03T18:17:25.794Z,19.97
2018-06-03T18:19:58.245Z,20.85
2018-06-03T18:22:30.971Z,18.75
2018-06-03T18:25:03.393Z,19.90
2018-06-03T18:27:35.810Z,20.97
2018-06-03T18:30:08.241Z,19.77
2018-06-03T18:32:40.662Z,21.73
2018-06-03T18:35:13.090Z,19.77
2018-06-03T18:37:45.512Z,20.63
2018-06-03T18:40:18.445Z,19.90
2018-06-03T18:42:51.094Z,21.77
2018-06-03T18:45:23.542Z,20.33
2018-06-03T18:47:55.967Z,20.23
2018-06-03T18:50:28.390Z,19.57
2018-06-03T18:53:01.047Z,18.90
2018-06-03T18:55:33.777Z,20.13
2018-06-03T18:58:06.550Z,19.73
2018-06-03T19:00:39.209Z,20.83
2018-06-03T19:03:11.902Z,19.73
2018-06-03T19:05:44.325Z,21.10
2018-06-03T19:08:16.768Z,19.63
2018-06-03T19:10:49.198Z,19.73
2018-06-03T19:13:21.611Z,19.33
2018-06-03T19:15:54.055Z,19.90
2018-06-03T19:18:26.728Z,18.77
2018-06-03T19:20:59.164Z,20.37
2018-06-03T19:23:31.586Z,19.47
2018-06-03T19:26:04.034Z,19.80
2018-06-03T19:28:36.450Z,20.03
2018-06-03T19:31:09.266Z,19.60
2018-06-03T19:33:42.009Z,17.77
2018-06-03T19:36:14.454Z,17.07
